Time;durP1;ratioP1;P1;durP2;ratioP2;P2;SDS_P1;SDS_P2;PMS_P1;PMS_P2;Temp;Humidity;BMP_temperature;BMP_pressure;BME280_temperature;BME280_humidity;BME280_pressure;Samples;Min_cycle;Max_cycle;Signal;HPM_P1;HPM_P2
2022/01/02 00:00:46;;;;;;;6.37;3.40;;;3.20;96.30;;;;;;4936602;29;20470;-78
2022/01/02 00:03:18;;;;;;;9.10;4.33;;;3.20;96.30;;;;;;4953600;29;20422;-78
2022/01/02 00:05:44;;;;;;;6.50;3.53;;;;;;;;;;4953449;29;20403;-79
2022/01/02 00:08:11;;;;;;;6.57;3.87;;;3.00;96.30;;;;;;4953611;29;20410;-78
2022/01/02 00:10:47;;;;;;;7.47;3.53;;;2.90;96.30;;;;;;4953519;29;20433;-78
2022/01/02 00:13:33;;;;;;;6.33;4.57;;;2.90;96.30;;;;;;4936121;29;20418;-77
2022/01/02 00:16:05;;;;;;;6.93;4.20;;;2.90;96.30;;;;;;4953106;29;20823;-77
2022/01/02 00:18:34;;;;;;;5.47;3.10;;;2.90;96.30;;;;;;4953657;29;20500;-77
2022/01/02 00:21:03;;;;;;;3.10;2.80;;;3.20;96.30;;;;;;4953413;29;20438;-78
2022/01/02 00:23:33;;;;;;;6.53;3.10;;;3.30;96.30;;;;;;4953691;29;20419;-77
2022/01/02 00:26:04;;;;;;;5.67;3.37;;;3.40;96.30;;;;;;4936675;29;20603;-79
2022/01/02 00:28:32;;;;;;;4.90;3.50;;;3.30;96.30;;;;;;4954095;29;20411;-78
2022/01/02 00:30:58;;;;;;;4.03;2.93;;;3.30;96.30;;;;;;4953761;29;20438;-77
2022/01/02 00:33:25;;;;;;;7.03;3.50;;;3.40;96.30;;;;;;4953766;29;20427;-77
2022/01/02 00:35:51;;;;;;;3.47;2.60;;;3.40;96.30;;;;;;4923046;29;20506;-78
2022/01/02 00:38:20;;;;;;;4.80;3.20;;;3.40;96.30;;;;;;4917399;29;20478;-78
2022/01/02 00:40:48;;;;;;;7.00;3.40;;;3.40;96.30;;;;;;4943011;29;20188;-79
2022/01/02 00:43:22;;;;;;;6.23;3.70;;;3.20;96.30;;;;;;4920738;29;20479;-79
2022/01/02 00:45:51;;;;;;;5.20;3.47;;;3.20;96.30;;;;;;4937402;29;20951;-79
2022/01/02 00:48:28;;;;;;;4.60;3.20;;;3.10;96.30;;;;;;4937570;29;20424;-78
2022/01/02 00:51:04;;;;;;;3.70;3.40;;;3.10;96.30;;;;;;4937369;29;20427;-78
2022/01/02 00:53:34;;;;;;;7.17;3.90;;;3.00;96.30;;;;;;4920451;29;20554;-79
2022/01/02 00:56:01;;;;;;;5.17;3.50;;;3.00;96.30;;;;;;4937596;29;20419;-77
2022/01/02 00:58:48;;;;;;;7.10;4.50;;;3.10;96.30;;;;;;4937540;29;20474;-78
2022/01/02 05:00:57;;;;;;;4.40;3.23;;;3.50;96.30;;;;;;5689601;23;20598;-78
2022/01/02 05:03:22;;;;;;;7.93;3.03;;;3.50;96.30;;;;;;4939045;29;20529;-78
2022/01/02 05:05:48;;;;;;;4.67;3.60;;;3.50;96.30;;;;;;4955723;29;20221;-78
2022/01/02 05:08:13;;;;;;;5.20;3.27;;;3.40;96.30;;;;;;4939164;29;20218;-78
2022/01/02 05:10:39;;;;;;;6.20;3.90;;;3.40;96.30;;;;;;4939068;29;20197;-77
2022/01/02 05:13:04;;;;;;;5.60;3.70;;;3.40;96.30;;;;;;4956840;29;20650;-76
2022/01/02 05:15:29;;;;;;;4.23;3.73;;;3.40;96.30;;;;;;4956705;29;20179;-75
2022/01/02 05:17:55;;;;;;;5.13;3.30;;;3.40;96.30;;;;;;4954796;29;20254;-75
2022/01/02 05:30:43;;;;;;;4.57;3.90;;;;;;;;;;4939432;29;20489;-75
2022/01/02 05:33:08;;;;;;;6.23;4.60;;;3.40;96.30;;;;;;4955922;29;20894;-75
2022/01/02 05:35:34;;;;;;;4.60;4.03;;;3.40;96.30;;;;;;4966343;28;20174;-75
2022/01/02 05:38:03;;;;;;;7.73;4.23;;;3.40;96.30;;;;;;4974543;28;20182;-76
2022/01/02 05:40:31;;;;;;;4.93;3.70;;;3.30;96.30;;;;;;4974932;28;20217;-75
2022/01/02 05:43:01;;;;;;;10.77;4.20;;;3.30;96.30;;;;;;4974920;28;20461;-75
2022/01/02 05:45:27;;;;;;;5.00;3.40;;;3.70;96.30;;;;;;4974856;28;20414;-75
2022/01/02 05:47:53;;;;;;;5.87;3.83;;;3.70;96.30;;;;;;4957164;28;20421;-75
2022/01/02 05:50:20;;;;;;;4.60;3.53;;;3.70;96.30;;;;;;4957379;28;20938;-75
2022/01/02 05:52:45;;;;;;;4.57;3.60;;;3.60;96.30;;;;;;4974667;28;20230;-75
2022/01/02 05:55:11;;;;;;;5.60;4.13;;;3.60;96.30;;;;;;4975340;28;20978;-76
2022/01/02 05:57:37;;;;;;;8.70;3.60;;;3.50;96.30;;;;;;4974161;28;20193;-76
2022/01/02 06:00:07;;;;;;;5.33;3.70;;;3.50;96.30;;;;;;4974659;28;20677;-77
2022/01/02 06:02:32;;;;;;;4.40;3.40;;;3.50;96.30;;;;;;4974372;28;20577;-76
2022/01/02 06:04:59;;;;;;;8.07;3.43;;;3.70;96.30;;;;;;4974584;28;20421;-75
2022/01/02 06:07:24;;;;;;;4.20;2.57;;;3.80;96.30;;;;;;4973974;28;20183;-77
2022/01/02 06:09:50;;;;;;;4.70;3.07;;;4.20;96.30;;;;;;4957223;28;20432;-76
2022/01/02 06:12:15;;;;;;;4.80;3.30;;;4.30;96.30;;;;;;4974548;28;20253;-75
2022/01/02 06:14:41;;;;;;;4.97;3.10;;;4.40;96.30;;;;;;4957042;28;20704;-75
2022/01/02 06:17:06;;;;;;;5.70;3.77;;;4.40;96.30;;;;;;4973987;28;20197;-78
2022/01/02 06:19:32;;;;;;;4.00;3.60;;;4.30;96.30;;;;;;4957007;28;20189;-79
2022/01/02 06:21:57;;;;;;;5.20;4.13;;;4.30;96.30;;;;;;4956869;28;20206;-78
2022/01/02 06:24:23;;;;;;;5.60;4.33;;;4.30;96.30;;;;;;4957051;28;20181;-78
2022/01/02 06:26:48;;;;;;;4.73;4.03;;;4.30;96.30;;;;;;4956457;28;20630;-78
2022/01/02 06:29:14;;;;;;;4.73;3.50;;;4.20;96.30;;;;;;4974192;28;20237;-78
2022/01/02 06:31:39;;;;;;;4.47;3.40;;;4.60;96.30;;;;;;4974303;28;20198;-77
2022/01/02 06:34:05;;;;;;;5.33;2.20;;;5.00;96.30;;;;;;4957360;28;20268;-79
2022/01/02 06:36:30;;;;;;;3.07;1.33;;;5.60;96.30;;;;;;4954922;28;20704;-79
2022/01/02 06:38:56;;;;;;;3.70;1.20;;;6.30;96.30;;;;;;4937438;29;20289;-77
2022/01/02 06:41:21;;;;;;;3.27;1.40;;;6.70;96.30;;;;;;4954895;29;20246;-77
2022/01/02 06:43:52;;;;;;;1.90;1.30;;;7.40;96.30;;;;;;4954934;29;20210;-77
2022/01/02 06:46:20;;;;;;;4.50;1.90;;;7.80;96.30;;;;;;4954209;29;20171;-76
2022/01/02 06:48:46;;;;;;;2.10;1.33;;;8.30;96.30;;;;;;4954588;29;20411;-77
2022/01/02 06:51:12;;;;;;;2.83;1.40;;;8.40;96.30;;;;;;4937061;29;20442;-77
2022/01/02 06:53:38;;;;;;;3.00;1.23;;;8.60;96.30;;;;;;4954487;29;20422;-77
2022/01/02 06:56:03;;;;;;;2.63;1.40;;;8.50;96.30;;;;;;4954108;29;20179;-77
2022/01/02 06:58:29;;;;;;;3.43;1.40;;;8.50;96.30;;;;;;4943252;29;20163;-77
2022/01/02 07:00:56;;;;;;;1.90;1.00;;;8.60;96.30;;;;;;4954881;29;20655;-78
2022/01/02 07:03:22;;;;;;;4.30;1.17;;;8.50;96.30;;;;;;4954654;29;20198;-77
2022/01/02 07:05:48;;;;;;;1.70;0.90;;;8.70;96.30;;;;;;4936896;29;20423;-77
2022/01/02 07:08:13;;;;;;;2.73;1.27;;;8.70;96.30;;;;;;4939403;29;20907;-78
2022/01/02 07:10:39;;;;;;;3.00;1.10;;;;;;;;;;4921340;29;20234;-78
2022/01/02 07:13:05;;;;;;;1.20;0.90;;;8.70;96.30;;;;;;4935772;29;20186;-77
2022/01/02 07:15:30;;;;;;;1.33;0.90;;;8.70;96.30;;;;;;4935654;29;20180;-78
2022/01/02 07:17:56;;;;;;;1.20;0.90;;;8.90;96.30;;;;;;4935171;29;20273;-77
2022/01/02 07:20:21;;;;;;;2.70;0.90;;;8.90;96.30;;;;;;4933466;29;20250;-77
2022/01/02 07:22:47;;;;;;;1.83;1.00;;;8.70;96.30;;;;;;4918038;29;20326;-77
2022/01/02 07:25:13;;;;;;;3.13;1.10;;;8.40;96.30;;;;;;4934586;29;20219;-76
2022/01/02 07:27:39;;;;;;;2.50;1.00;;;8.20;96.30;;;;;;4916883;29;20423;-77
2022/01/02 07:30:06;;;;;;;1.77;1.00;;;8.00;96.30;;;;;;4917711;29;20282;-77
2022/01/02 07:32:31;;;;;;;1.10;0.90;;;8.10;96.30;;;;;;4917269;29;20303;-77
2022/01/02 07:34:57;;;;;;;1.27;0.87;;;8.40;96.30;;;;;;4924053;29;20462;-75
2022/01/02 07:37:22;;;;;;;1.60;1.00;;;8.40;96.30;;;;;;4953198;29;20194;-75
2022/01/02 07:39:48;;;;;;;2.80;1.10;;;8.40;96.30;;;;;;4936731;29;20258;-75
2022/01/02 07:42:13;;;;;;;2.53;1.03;;;8.40;96.30;;;;;;4953621;29;20210;-74
2022/01/02 07:44:39;;;;;;;1.20;0.80;;;8.80;96.30;;;;;;4954350;29;20179;-77
2022/01/02 07:47:05;;;;;;;1.30;1.10;;;8.70;96.30;;;;;;4954292;29;20254;-77
2022/01/02 07:49:31;;;;;;;2.10;0.90;;;8.90;96.30;;;;;;4960937;28;20179;-76
2022/01/02 07:51:56;;;;;;;2.03;1.10;;;9.00;96.30;;;;;;4968592;29;20799;-77
2022/01/02 07:54:22;;;;;;;1.80;1.10;;;9.20;96.30;;;;;;4967870;29;20175;-78
2022/01/02 07:56:47;;;;;;;1.40;0.90;;;9.20;96.30;;;;;;4948432;29;20195;-76
2022/01/02 07:59:13;;;;;;;2.37;1.17;;;9.20;96.30;;;;;;4938122;29;20167;-74
2022/01/02 08:01:38;;;;;;;2.57;1.10;;;9.20;96.30;;;;;;4941640;29;20203;-80
2022/01/02 08:04:04;;;;;;;1.10;0.90;;;9.30;96.30;;;;;;4922280;29;20183;-74
2022/01/02 08:06:30;;;;;;;3.70;1.60;;;9.30;96.30;;;;;;4938160;29;20264;-77
2022/01/02 08:08:55;;;;;;;1.20;0.90;;;9.40;96.30;;;;;;4927087;29;20183;-75
2022/01/02 08:11:21;;;;;;;1.10;1.00;;;9.60;96.30;;;;;;4940190;29;20802;-76
2022/01/02 08:13:47;;;;;;;3.10;1.20;;;9.60;96.30;;;;;;4957418;29;20186;-76
2022/01/02 08:16:13;;;;;;;4.00;0.80;;;9.60;96.30;;;;;;4940469;29;20422;-77
2022/01/02 08:18:40;;;;;;;2.03;1.10;;;9.60;96.30;;;;;;4956932;29;20766;-77
2022/01/02 08:24:18;;;;;;;3.53;1.37;;;9.40;96.30;;;;;;5762261;23;20489;-76
2022/01/02 08:26:45;;;;;;;1.80;0.97;;;9.70;96.30;;;;;;4955670;29;21270;-76
2022/01/02 08:29:11;;;;;;;2.50;1.17;;;9.70;96.30;;;;;;4954395;29;20453;-76
2022/01/02 08:31:36;;;;;;;1.77;1.10;;;9.70;96.30;;;;;;4948668;29;20410;-78
2022/01/02 08:34:02;;;;;;;4.33;1.10;;;9.90;96.30;;;;;;4956456;29;20225;-78
2022/01/02 08:36:27;;;;;;;3.10;1.20;;;9.90;96.30;;;;;;4940065;29;20182;-78
2022/01/02 08:38:53;;;;;;;3.00;1.00;;;10.00;96.30;;;;;;4956911;29;20754;-76
2022/01/02 08:41:18;;;;;;;2.20;1.33;;;10.10;96.30;;;;;;4939500;29;20210;-78
2022/01/02 08:43:44;;;;;;;3.33;1.10;;;10.10;96.30;;;;;;4956482;29;20273;-78
2022/01/02 08:46:10;;;;;;;8.20;1.10;;;10.20;96.30;;;;;;4940944;29;20564;-78
2022/01/02 08:48:35;;;;;;;1.40;0.90;;;10.20;96.30;;;;;;4958015;29;20179;-78
2022/01/02 08:51:01;;;;;;;3.80;1.60;;;10.30;96.30;;;;;;4940180;29;20430;-77
2022/01/02 08:53:32;;;;;;;2.30;1.13;;;10.30;96.30;;;;;;4957999;29;20210;-77
2022/01/02 08:55:58;;;;;;;3.10;1.10;;;10.30;96.30;;;;;;4959468;29;20270;-77
2022/01/02 08:58:23;;;;;;;2.17;1.10;;;10.20;96.30;;;;;;4945252;29;20462;-78
2022/01/02 09:00:49;;;;;;;3.33;1.20;;;10.30;96.30;;;;;;4957197;28;20178;-78
2022/01/02 09:03:15;;;;;;;4.03;1.10;;;10.30;96.30;;;;;;4955831;28;20586;-79
2022/01/02 09:05:41;;;;;;;2.40;1.20;;;10.40;96.30;;;;;;4947008;28;20194;-79
2022/01/02 09:08:07;;;;;;;2.60;1.37;;;10.40;96.30;;;;;;4940057;29;20435;-78
2022/01/02 09:10:33;;;;;;;3.53;1.47;;;10.50;96.30;;;;;;4957087;29;20458;-79
2022/01/02 09:12:58;;;;;;;5.77;1.20;;;10.50;96.30;;;;;;4940176;29;20269;-78
2022/01/02 09:15:24;;;;;;;1.53;0.93;;;10.50;96.30;;;;;;4957118;29;20203;-78
2022/01/02 09:17:50;;;;;;;2.37;1.30;;;10.50;96.30;;;;;;4940368;29;20175;-79
2022/01/02 09:20:17;;;;;;;4.00;1.30;;;10.50;96.30;;;;;;4957442;29;20441;-78
2022/01/02 09:22:43;;;;;;;1.10;0.80;;;10.60;96.30;;;;;;4939998;29;20622;-79
2022/01/02 09:25:09;;;;;;;2.30;1.20;;;10.70;96.30;;;;;;4956506;29;20446;-79
2022/01/02 09:27:36;;;;;;;1.67;1.10;;;10.70;96.30;;;;;;4958590;29;20431;-80
2022/01/02 09:30:04;;;;;;;3.70;2.17;;;10.70;96.30;;;;;;4958303;29;20898;-79
2022/01/02 09:32:30;;;;;;;2.40;1.53;;;10.90;96.30;;;;;;4941278;29;20938;-79
2022/01/02 09:34:55;;;;;;;2.30;1.20;;;11.00;96.30;;;;;;4940588;29;20473;-79
2022/01/02 09:37:21;;;;;;;2.60;1.33;;;11.10;96.30;;;;;;4957109;29;20643;-78
2022/01/02 09:39:46;;;;;;;3.33;1.40;;;11.20;96.30;;;;;;4940442;29;20242;-80
2022/01/02 09:42:12;;;;;;;2.77;1.30;;;11.20;96.30;;;;;;4927609;29;20745;-80
2022/01/02 09:44:38;;;;;;;3.57;1.30;;;11.30;96.30;;;;;;4939383;29;20195;-78
2022/01/02 09:47:04;;;;;;;2.80;1.20;;;11.30;96.30;;;;;;4921616;29;20176;-77
2022/01/02 09:49:31;;;;;;;2.70;1.20;;;11.30;96.30;;;;;;4923678;29;20527;-79
2022/01/02 09:51:56;;;;;;;3.83;1.10;;;11.30;96.30;;;;;;4947699;29;20426;-77
2022/01/02 09:54:22;;;;;;;2.17;1.17;;;11.40;96.30;;;;;;4939132;29;20478;-77
2022/01/02 09:56:48;;;;;;;2.87;1.30;;;11.50;96.30;;;;;;4955872;29;20257;-77
2022/01/02 09:59:13;;;;;;;2.47;1.30;;;11.50;96.30;;;;;;4961004;29;20179;-77
2022/01/02 10:01:39;;;;;;;2.20;1.10;;;11.60;96.30;;;;;;4937613;29;20289;-77
2022/01/02 10:04:04;;;;;;;3.13;1.37;;;11.50;96.30;;;;;;4952282;29;20642;-78
2022/01/02 10:06:42;;;;;;;1.90;1.10;;;11.50;96.30;;;;;;4954756;29;20175;-78
2022/01/02 10:09:30;;;;;;;5.97;1.50;;;11.50;96.30;;;;;;4955281;29;20181;-76
2022/01/02 10:12:19;;;;;;;14.37;7.97;;;11.60;96.30;;;;;;4955086;28;20410;-77
2022/01/02 10:14:44;;;;;;;3.87;1.80;;;11.60;96.30;;;;;;4925096;29;20544;-78
2022/01/02 10:17:10;;;;;;;3.30;1.60;;;11.70;96.30;;;;;;4936050;29;20583;-76
2022/01/02 10:19:38;;;;;;;2.80;1.20;;;11.90;96.30;;;;;;4935745;29;20195;-76
2022/01/02 10:22:06;;;;;;;7.17;3.53;;;12.00;96.30;;;;;;4935579;29;20204;-77
2022/01/02 10:24:42;;;;;;;5.37;3.60;;;12.20;96.30;;;;;;4938373;29;21013;-77
2022/01/02 10:27:12;;;;;;;11.07;3.50;;;12.30;96.30;;;;;;4937984;29;20438;-77
2022/01/02 10:29:46;;;;;;;6.10;2.60;;;12.50;96.30;;;;;;4937544;29;20434;-78
2022/01/02 10:32:28;;;;;;;7.93;2.80;;;12.60;96.30;;;;;;4954519;29;20434;-76
2022/01/02 10:35:17;;;;;;;3.53;2.10;;;12.80;96.30;;;;;;4953416;29;20625;-78
2022/01/02 10:37:43;;;;;;;71.53;29.67;;;13.10;96.30;;;;;;4946271;29;20494;-76
2022/01/02 10:40:27;;;;;;;6.50;2.90;;;13.20;96.30;;;;;;4954466;29;20914;-77
2022/01/02 10:42:53;;;;;;;3.63;1.20;;;13.20;96.30;;;;;;4952482;29;20544;-76
2022/01/02 10:45:32;;;;;;;4.00;1.73;;;13.00;96.30;;;;;;4936073;29;20446;-76
2022/01/02 10:47:57;;;;;;;19.60;8.20;;;13.00;96.30;;;;;;4954515;29;20411;-76
2022/01/02 10:50:23;;;;;;;4.83;1.60;;;13.00;96.30;;;;;;4954335;29;20775;-76
2022/01/02 10:52:48;;;;;;;8.83;5.70;;;13.00;96.30;;;;;;4937351;29;20179;-75
2022/01/02 10:55:21;;;;;;;9.30;1.57;;;12.90;96.30;;;;;;4953522;29;20215;-76
2022/01/02 10:57:49;;;;;;;6.53;1.73;;;12.90;96.30;;;;;;4954337;29;20266;-75
2022/01/02 11:00:16;;;;;;;4.03;1.80;;;12.70;96.30;;;;;;4954349;29;21227;-76
2022/01/02 11:02:43;;;;;;;7.03;1.70;;;12.60;96.30;;;;;;4962134;29;20502;-76
2022/01/02 11:05:11;;;;;;;6.33;2.93;;;12.50;96.30;;;;;;4954503;29;20426;-76
2022/01/02 11:07:44;;;;;;;11.77;5.80;;;12.40;96.30;;;;;;4954211;29;20413;-78
2022/01/02 11:10:12;;;;;;;9.53;5.60;;;12.40;96.30;;;;;;4955843;29;20414;-80
2022/01/02 11:12:39;;;;;;;18.90;9.73;;;12.30;96.30;;;;;;4955811;29;20410;-75
2022/01/02 11:15:29;;;;;;;8.80;4.60;;;12.20;96.30;;;;;;4953195;29;20923;-75
2022/01/02 11:17:55;;;;;;;4.87;3.53;;;12.10;96.30;;;;;;4936112;29;20502;-74
2022/01/02 11:20:29;;;;;;;8.37;2.60;;;12.00;96.30;;;;;;4953924;29;20473;-76
2022/01/02 11:23:09;;;;;;;5.70;2.10;;;12.00;96.30;;;;;;4953890;28;20452;-76
2022/01/02 11:25:54;;;;;;;4.30;2.13;;;12.00;96.30;;;;;;4953860;29;20545;-76
2022/01/02 11:28:26;;;;;;;5.30;1.77;;;11.90;96.30;;;;;;4953800;29;20411;-75
2022/01/02 11:30:53;;;;;;;7.00;5.30;;;12.00;96.30;;;;;;4951643;29;20439;-76
2022/01/02 11:33:25;;;;;;;7.00;2.57;;;11.90;96.30;;;;;;4952310;29;20517;-75
2022/01/02 11:35:51;;;;;;;3.17;1.43;;;11.90;96.30;;;;;;4933545;29;20430;-75
2022/01/02 11:38:19;;;;;;;5.07;2.57;;;12.00;96.30;;;;;;4935446;29;20993;-76
2022/01/02 11:40:58;;;;;;;4.40;1.50;;;12.00;96.30;;;;;;4953441;29;20751;-75
2022/01/02 11:43:35;;;;;;;5.20;1.77;;;12.00;96.30;;;;;;4936606;28;22410;-76
2022/01/02 11:46:21;;;;;;;4.37;2.33;;;11.90;96.30;;;;;;4938132;29;20792;-75
2022/01/02 11:49:05;;;;;;;4.73;2.30;;;12.00;96.30;;;;;;4951970;29;20422;-76
2022/01/02 11:52:02;;;;;;;5.60;4.30;;;11.90;96.30;;;;;;4954642;29;20442;-77
2022/01/02 11:54:28;;;;;;;9.80;7.77;;;12.00;96.30;;;;;;4937912;29;20446;-76
2022/01/02 11:56:54;;;;;;;6.30;2.50;;;11.90;96.30;;;;;;4953663;29;20430;-76
2022/01/02 11:59:38;;;;;;;5.43;2.00;;;12.00;96.30;;;;;;4953656;29;20314;-76
2022/01/02 12:02:08;;;;;;;4.27;1.60;;;11.90;96.30;;;;;;4953714;29;20478;-76
2022/01/02 12:07:35;;;;;;;6.40;4.00;;;11.90;96.30;;;;;;4954163;29;20387;-76
2022/01/02 12:10:30;;;;;;;9.43;4.53;;;12.00;96.30;;;;;;4954029;29;20401;-76
2022/01/02 12:12:56;;;;;;;12.57;8.40;;;12.10;96.30;;;;;;4952201;29;20430;-76
2022/01/02 12:15:43;;;;;;;23.83;14.53;;;12.20;96.30;;;;;;4935457;29;20521;-76
2022/01/02 12:18:33;;;;;;;6.60;3.07;;;12.30;96.30;;;;;;4939472;29;20207;-76
2022/01/02 12:21:01;;;;;;;15.23;8.30;;;12.30;96.30;;;;;;4953448;29;20965;-75
2022/01/02 12:23:30;;;;;;;3.03;1.63;;;12.40;96.30;;;;;;4952383;29;20564;-75
2022/01/02 12:26:21;;;;;;;6.63;1.60;;;12.40;96.30;;;;;;4952471;29;20485;-75
2022/01/02 12:28:57;;;;;;;6.07;2.20;;;12.30;96.30;;;;;;4951867;29;20407;-76
2022/01/02 12:31:26;;;;;;;10.67;2.37;;;12.30;96.30;;;;;;4952865;28;20414;-76
2022/01/02 12:33:52;;;;;;;5.67;2.43;;;12.30;96.30;;;;;;4950993;29;20517;-77
2022/01/02 12:36:19;;;;;;;5.10;1.83;;;12.20;96.30;;;;;;4955322;29;20533;-75
2022/01/02 12:38:53;;;;;;;4.00;2.60;;;12.30;96.30;;;;;;4956498;29;20217;-76
2022/01/02 12:41:20;;;;;;;7.17;3.70;;;12.00;96.30;;;;;;4957095;28;20407;-76
2022/01/02 12:51:34;;;;;;;8.57;4.33;;;11.70;96.30;;;;;;5654710;23;20486;-77
2022/01/02 12:54:07;;;;;;;6.70;2.73;;;11.80;96.30;;;;;;4956120;29;20438;-77
2022/01/02 12:56:38;;;;;;;4.60;2.07;;;11.80;96.30;;;;;;4938984;29;20843;-77
2022/01/02 12:59:17;;;;;;;9.80;2.17;;;11.70;96.30;;;;;;4956558;29;20399;-77
2022/01/02 13:01:51;;;;;;;7.20;4.40;;;11.80;96.30;;;;;;4956211;29;21078;-76
2022/01/02 13:04:22;;;;;;;17.20;3.37;;;12.00;96.30;;;;;;4937646;29;20481;-77
2022/01/02 13:06:47;;;;;;;20.83;2.80;;;12.30;96.30;;;;;;4956360;29;20411;-76
2022/01/02 13:09:43;;;;;;;7.83;2.60;;;12.40;96.30;;;;;;4960950;29;20417;-77
2022/01/02 13:12:14;;;;;;;7.00;2.50;;;12.30;96.30;;;;;;4956217;29;20167;-77
2022/01/02 13:14:43;;;;;;;10.77;3.20;;;12.20;96.30;;;;;;4955894;29;20434;-77
2022/01/02 13:17:12;;;;;;;7.53;2.20;;;12.20;96.30;;;;;;4956251;29;20422;-77
2022/01/02 13:19:45;;;;;;;8.03;2.40;;;12.20;96.30;;;;;;4956035;29;20907;-76
2022/01/02 13:22:16;;;;;;;5.40;2.40;;;12.10;96.30;;;;;;4955961;29;20454;-77
2022/01/02 13:24:42;;;;;;;5.77;2.13;;;12.10;96.30;;;;;;4938272;29;21024;-77
2022/01/02 13:27:08;;;;;;;4.20;1.80;;;12.00;96.30;;;;;;4956061;29;20414;-77
2022/01/02 13:29:34;;;;;;;4.43;2.03;;;12.00;96.30;;;;;;4948698;29;20695;-77
2022/01/02 13:32:13;;;;;;;4.60;2.77;;;11.90;96.30;;;;;;4947488;29;20187;-76
2022/01/02 13:34:38;;;;;;;2.73;1.60;;;11.80;96.30;;;;;;4946060;29;20484;-77
2022/01/02 13:37:04;;;;;;;4.03;1.93;;;11.70;96.30;;;;;;4955772;29;20792;-77
2022/01/02 13:39:42;;;;;;;3.43;2.50;;;11.60;96.30;;;;;;4955669;29;20670;-76
2022/01/02 13:42:09;;;;;;;13.93;10.80;;;11.50;96.30;;;;;;4938366;29;20458;-77
2022/01/02 13:44:47;;;;;;;3.73;3.33;;;11.60;96.30;;;;;;4955288;29;20438;-77
2022/01/02 13:47:14;;;;;;;4.00;2.30;;;11.60;96.30;;;;;;4955532;28;20417;-77
2022/01/02 13:49:56;;;;;;;3.77;1.93;;;11.40;96.30;;;;;;4938063;29;20426;-77
2022/01/02 13:52:22;;;;;;;2.10;1.90;;;11.30;96.30;;;;;;4955355;29;20524;-77
2022/01/02 13:54:48;;;;;;;1.60;1.50;;;11.20;96.30;;;;;;4954837;29;20442;-77
2022/01/02 13:57:15;;;;;;;2.73;1.83;;;11.20;96.30;;;;;;4955303;29;20418;-77
2022/01/02 13:59:42;;;;;;;2.03;1.67;;;11.10;96.30;;;;;;4955385;29;20426;-77
2022/01/02 14:02:08;;;;;;;7.33;1.63;;;11.00;96.30;;;;;;4937774;29;20954;-77
2022/01/02 14:04:56;;;;;;;2.43;1.90;;;11.10;96.30;;;;;;4954693;29;20490;-77
2022/01/02 14:07:30;;;;;;;2.67;1.40;;;11.10;96.30;;;;;;4955227;29;20167;-77
2022/01/02 14:09:57;;;;;;;1.77;1.13;;;11.10;96.30;;;;;;4955138;29;20406;-76
2022/01/02 14:12:28;;;;;;;2.30;1.73;;;11.20;96.30;;;;;;4954918;29;20921;-77
2022/01/02 14:15:02;;;;;;;3.00;2.00;;;11.10;96.30;;;;;;4937569;29;20442;-77
2022/01/02 14:17:33;;;;;;;8.43;5.33;;;11.10;96.30;;;;;;4955002;29;20422;-77
2022/01/02 14:20:01;;;;;;;2.03;1.83;;;11.10;96.30;;;;;;4955085;29;20409;-77
2022/01/02 14:22:27;;;;;;;3.60;2.30;;;11.10;96.30;;;;;;4955265;29;20450;-76
2022/01/02 14:24:56;;;;;;;1.77;1.27;;;11.20;96.30;;;;;;4955283;29;20433;-77
2022/01/02 14:27:27;;;;;;;16.07;10.33;;;11.30;96.30;;;;;;4955619;29;20435;-77
2022/01/02 14:29:53;;;;;;;12.90;7.70;;;11.30;96.30;;;;;;4955854;29;20398;-77
2022/01/02 14:32:20;;;;;;;8.60;2.97;;;11.40;96.30;;;;;;4955373;29;20418;-76
2022/01/02 14:34:46;;;;;;;9.83;6.60;;;11.40;96.30;;;;;;4950811;29;20956;-77
2022/01/02 14:37:13;;;;;;;2.80;1.93;;;11.40;96.30;;;;;;4935605;29;20419;-77
2022/01/02 14:39:39;;;;;;;2.50;2.30;;;11.30;96.30;;;;;;4935602;29;20176;-77
2022/01/02 14:42:05;;;;;;;6.03;3.67;;;11.30;96.30;;;;;;4935599;29;20471;-77
2022/01/02 14:44:31;;;;;;;1.90;1.33;;;11.30;96.30;;;;;;4936252;29;20435;-79
2022/01/02 14:46:56;;;;;;;5.00;3.30;;;11.30;96.30;;;;;;4955014;29;20647;-77
2022/01/02 14:49:22;;;;;;;10.80;7.90;;;11.30;96.30;;;;;;4945129;29;20188;-78
2022/01/02 14:51:48;;;;;;;5.27;3.67;;;11.30;96.30;;;;;;4918295;29;20198;-77
2022/01/02 14:54:14;;;;;;;9.77;5.30;;;11.30;96.30;;;;;;4911351;29;20212;-78
2022/01/02 14:56:40;;;;;;;3.10;2.20;;;11.30;96.30;;;;;;4934967;29;20179;-78
2022/01/02 14:59:08;;;;;;;8.57;2.07;;;11.20;96.30;;;;;;4914499;29;20431;-78
2022/01/02 15:01:34;;;;;;;4.57;1.90;;;11.30;96.30;;;;;;4933350;29;20439;-78
2022/01/02 15:04:00;;;;;;;2.10;1.33;;;11.40;96.30;;;;;;4926905;29;20518;-78
2022/01/02 15:06:25;;;;;;;3.30;1.90;;;11.40;96.30;;;;;;4931936;29;20431;-78
2022/01/02 15:08:51;;;;;;;5.33;3.37;;;11.30;96.30;;;;;;4915197;29;20270;-78
2022/01/02 15:11:17;;;;;;;4.20;2.53;;;11.20;96.30;;;;;;4931348;29;20188;-77
2022/01/02 15:13:43;;;;;;;3.60;2.80;;;11.00;96.30;;;;;;4930430;29;20267;-77
2022/01/02 15:16:08;;;;;;;11.90;7.07;;;11.00;96.30;;;;;;4914023;29;20531;-76
2022/01/02 15:18:34;;;;;;;5.10;3.90;;;10.90;96.30;;;;;;4931860;29;20187;-77
2022/01/02 15:21:00;;;;;;;5.47;2.20;;;10.90;96.30;;;;;;4928883;29;20789;-77
2022/01/02 15:23:26;;;;;;;3.83;2.50;;;10.80;96.30;;;;;;4928972;29;20217;-77
2022/01/02 15:25:51;;;;;;;4.10;1.63;;;10.90;96.30;;;;;;4915243;29;20636;-77
2022/01/02 15:28:17;;;;;;;2.20;1.80;;;11.10;96.30;;;;;;4928995;29;20179;-76
2022/01/02 15:30:44;;;;;;;8.30;4.83;;;11.40;96.30;;;;;;4931747;29;20278;-77
2022/01/02 15:33:10;;;;;;;3.17;2.37;;;11.30;96.30;;;;;;4913935;29;20186;-77
2022/01/02 15:35:35;;;;;;;4.80;3.03;;;11.30;96.30;;;;;;4928986;29;20424;-78
2022/01/02 15:38:02;;;;;;;4.40;2.10;;;11.30;96.30;;;;;;4929919;29;20214;-78
2022/01/02 15:40:27;;;;;;;4.93;2.10;;;11.30;96.30;;;;;;4932691;29;20215;-78
2022/01/02 15:42:53;;;;;;;5.40;2.93;;;11.60;96.30;;;;;;4929310;29;20491;-78
2022/01/02 15:45:19;;;;;;;2.93;1.87;;;11.50;96.30;;;;;;4933420;29;20227;-79
2022/01/02 15:47:48;;;;;;;19.70;10.70;;;11.60;96.30;;;;;;4917451;29;20183;-80
2022/01/02 15:50:15;;;;;;;5.40;3.30;;;11.50;96.30;;;;;;4917799;29;20831;-79
2022/01/02 15:52:41;;;;;;;6.80;4.37;;;11.40;96.30;;;;;;4950496;29;20434;-79
2022/01/02 15:55:07;;;;;;;11.17;7.60;;;11.50;96.30;;;;;;4954455;29;20445;-79
2022/01/02 15:57:32;;;;;;;4.50;3.70;;;11.40;96.30;;;;;;4954357;29;20175;-79
2022/01/02 15:59:58;;;;;;;9.30;3.17;;;11.20;96.30;;;;;;4936979;29;20789;-79
2022/01/02 16:02:24;;;;;;;2.90;2.17;;;11.00;96.30;;;;;;4937089;29;20767;-79
2022/01/02 16:04:49;;;;;;;9.50;6.40;;;10.90;96.30;;;;;;4936757;29;20218;-79
2022/01/02 16:07:15;;;;;;;6.20;4.33;;;11.00;96.30;;;;;;4954386;29;20223;-79
2022/01/02 16:09:40;;;;;;;3.17;1.70;;;10.90;96.30;;;;;;4937755;29;20171;-79
2022/01/02 16:12:06;;;;;;;3.90;2.30;;;10.90;96.30;;;;;;4958019;29;20261;-79
2022/01/02 16:14:33;;;;;;;2.73;2.00;;;11.00;96.30;;;;;;4959130;29;20274;-79
2022/01/02 16:16:58;;;;;;;5.23;2.03;;;10.80;96.30;;;;;;4942020;29;20430;-80
2022/01/02 16:19:24;;;;;;;2.90;1.90;;;10.60;96.30;;;;;;4942856;29;20415;-80
2022/01/02 16:21:50;;;;;;;1.73;1.60;;;10.50;96.30;;;;;;4959220;29;20201;-79
2022/01/02 16:24:16;;;;;;;3.77;1.67;;;10.40;96.30;;;;;;4957650;29;20187;-80
2022/01/02 16:26:42;;;;;;;2.63;1.80;;;10.20;96.30;;;;;;4957967;29;20442;-80
2022/01/02 16:29:08;;;;;;;6.00;3.00;;;10.00;96.30;;;;;;4940643;29;20574;-80
2022/01/02 16:31:33;;;;;;;3.60;2.40;;;9.90;96.30;;;;;;4959321;29;20234;-80
2022/01/02 16:34:00;;;;;;;5.40;2.60;;;9.90;96.30;;;;;;4960110;29;20282;-80
2022/01/02 16:36:25;;;;;;;3.37;2.20;;;9.90;96.30;;;;;;4926502;29;20275;-80
2022/01/02 16:38:51;;;;;;;5.70;2.37;;;9.80;96.30;;;;;;4921901;29;20455;-81
2022/01/02 16:41:18;;;;;;;4.73;2.50;;;9.70;96.30;;;;;;4921321;29;20431;-80
2022/01/02 16:43:44;;;;;;;3.70;2.20;;;9.70;96.30;;;;;;4937719;29;20239;-81
2022/01/02 16:46:12;;;;;;;6.80;2.70;;;9.60;96.30;;;;;;4938128;29;20450;-80
2022/01/02 16:48:38;;;;;;;5.73;2.30;;;9.60;96.30;;;;;;4938228;29;20537;-80
2022/01/02 16:51:03;;;;;;;4.30;1.80;;;9.50;96.30;;;;;;4920751;29;20426;-80
2022/01/02 16:53:29;;;;;;;4.20;2.10;;;9.40;96.30;;;;;;4937668;29;20663;-81
2022/01/02 16:55:55;;;;;;;3.63;2.13;;;9.50;96.30;;;;;;4937908;29;20188;-80
2022/01/02 16:58:20;;;;;;;3.50;2.40;;;9.40;96.30;;;;;;4937815;29;20263;-80
2022/01/02 17:00:46;;;;;;;3.83;2.37;;;9.30;96.30;;;;;;4920681;29;20183;-80
2022/01/02 17:03:11;;;;;;;4.97;1.73;;;9.30;96.30;;;;;;4937274;29;20561;-80
2022/01/02 17:05:37;;;;;;;8.13;2.27;;;9.20;96.30;;;;;;4920738;29;20227;-80
2022/01/02 17:08:03;;;;;;;4.93;2.07;;;9.30;96.30;;;;;;4937897;29;20744;-80
2022/01/02 17:10:29;;;;;;;4.73;2.60;;;9.30;96.30;;;;;;4920412;29;20278;-79
2022/01/02 17:12:56;;;;;;;2.70;2.00;;;9.30;96.30;;;;;;4937350;29;20181;-80
2022/01/02 17:15:23;;;;;;;4.93;2.30;;;9.30;96.30;;;;;;4919792;29;20451;-82
2022/01/02 17:17:48;;;;;;;3.33;2.50;;;9.20;96.30;;;;;;4924608;29;20431;-79
2022/01/02 17:20:15;;;;;;;3.70;2.40;;;9.00;96.30;;;;;;4928374;28;20424;-80